createdAt,value
2023-04-17T00:01:04.681Z,8.15
2023-04-17T00:03:51.979Z,6.15
2023-04-17T00:06:38.685Z,6.32
2023-04-17T00:09:25.496Z,6.45
2023-04-17T00:12:10.974Z,7.57
2023-04-17T00:14:56.400Z,7.70
2023-04-17T00:17:42.199Z,7.68
2023-04-17T00:20:27.946Z,7.97
2023-04-17T00:23:13.345Z,9.43
2023-04-17T00:25:58.890Z,8.73
2023-04-17T00:28:44.351Z,8.43
2023-04-17T00:31:30.421Z,10.13
2023-04-17T00:34:15.964Z,14.10
2023-04-17T00:37:01.499Z,15.73
2023-04-17T00:39:47.011Z,16.17
2023-04-17T00:42:32.386Z,18.75
2023-04-17T00:45:21.034Z,20.75
2023-04-17T00:50:54.661Z,17.35
2023-04-17T00:53:41.030Z,18.13
2023-04-17T00:56:27.916Z,19.35
2023-04-17T00:59:17.481Z,18.25
2023-04-17T01:02:03.600Z,19.00
2023-04-17T01:04:49.331Z,17.42
2023-04-17T01:07:35.861Z,16.88
2023-04-17T01:10:21.922Z,15.55
2023-04-17T01:13:08.281Z,14.75
2023-04-17T01:15:56.184Z,12.75
2023-04-17T01:18:41.909Z,14.75
2023-04-17T01:21:27.596Z,13.63
2023-04-17T01:24:13.403Z,14.82
2023-04-17T01:26:58.833Z,13.13
2023-04-17T01:29:44.739Z,12.00
2023-04-17T01:32:30.724Z,11.73
2023-04-17T01:35:16.372Z,15.32
2023-04-17T01:38:01.803Z,14.18
2023-04-17T01:40:47.449Z,10.02
2023-04-17T01:43:32.993Z,8.40
2023-04-17T01:46:18.746Z,6.40
2023-04-17T01:49:04.277Z,10.48
2023-04-17T01:51:50.140Z,8.82
2023-04-17T01:54:35.603Z,7.30
2023-04-17T01:57:21.301Z,6.38
2023-04-17T02:00:08.800Z,4.75
2023-04-17T02:02:58.091Z,6.07
2023-04-17T02:05:47.582Z,7.18
2023-04-17T02:08:33.954Z,6.90
2023-04-17T02:11:21.351Z,4.25
2023-04-17T02:14:09.882Z,4.00
2023-04-17T02:16:55.998Z,4.15
2023-04-17T02:19:41.741Z,3.00
2023-04-17T02:22:27.544Z,4.47
2023-04-17T02:25:13.272Z,4.18
2023-04-17T02:27:59.021Z,3.63
2023-04-17T02:30:45.965Z,4.47
2023-04-17T02:33:31.374Z,11.93
2023-04-17T02:36:17.912Z,17.35
2023-04-17T02:39:05.301Z,16.65
2023-04-17T02:41:50.930Z,12.25
2023-04-17T02:44:36.420Z,18.00
2023-04-17T02:47:22.109Z,17.15
2023-04-17T02:50:08.658Z,18.10
2023-04-17T02:53:01.775Z,18.55
2023-04-17T02:55:47.360Z,15.98
2023-04-17T02:58:35.652Z,14.95
2023-04-17T03:01:21.914Z,16.42
2023-04-17T03:04:07.921Z,16.20
2023-04-17T03:06:53.718Z,15.68
2023-04-17T03:09:39.402Z,15.32
2023-04-17T03:12:25.256Z,15.75
2023-04-17T03:15:11.237Z,16.05
2023-04-17T03:17:56.982Z,14.95
2023-04-17T03:20:42.747Z,14.98
2023-04-17T03:23:28.341Z,14.73
2023-04-17T03:26:14.160Z,15.60
2023-04-17T03:29:00.986Z,15.32
2023-04-17T03:31:46.351Z,15.18
2023-04-17T03:34:31.957Z,14.18
2023-04-17T03:37:18.016Z,16.02
2023-04-17T03:40:06.005Z,15.32
2023-04-17T03:42:52.358Z,14.68
2023-04-17T03:45:37.844Z,14.48
2023-04-17T03:48:23.919Z,14.52
2023-04-17T03:51:10.565Z,21.13
2023-04-17T03:53:57.450Z,8.05
2023-04-17T03:56:42.895Z,5.18
2023-04-17T03:59:33.103Z,5.40
2023-04-17T04:02:18.823Z,7.63
2023-04-17T04:05:06.387Z,9.02
2023-04-17T04:07:52.451Z,7.95
2023-04-17T04:10:45.649Z,7.70
2023-04-17T04:13:36.594Z,7.72
2023-04-17T04:16:23.328Z,6.60
2023-04-17T04:19:12.254Z,5.20
2023-04-17T04:21:58.001Z,6.93
2023-04-17T04:24:53.126Z,5.78
2023-04-17T04:27:48.939Z,5.68
2023-04-17T04:30:38.757Z,5.78
2023-04-17T04:33:32.451Z,7.75
2023-04-17T04:36:19.866Z,7.18
2023-04-17T04:39:09.460Z,5.57
2023-04-17T04:41:55.826Z,25.58
2023-04-17T04:44:47.107Z,32.95
2023-04-17T04:47:34.285Z,15.23
2023-04-17T04:50:20.830Z,12.15
2023-04-17T04:53:06.867Z,11.80
2023-04-17T04:56:01.132Z,21.88
2023-04-17T04:58:48.839Z,8.65
2023-04-17T05:01:35.305Z,8.05
2023-04-17T05:04:21.531Z,11.60
2023-04-17T05:07:11.034Z,10.32
2023-04-17T05:09:58.689Z,8.88
2023-04-17T05:12:44.430Z,8.43
2023-04-17T05:15:32.259Z,9.23
2023-04-17T05:18:18.013Z,7.50
2023-04-17T05:21:03.734Z,10.13
2023-04-17T05:23:49.394Z,8.63
2023-04-17T05:26:35.172Z,8.20
2023-04-17T05:29:24.061Z,7.65
2023-04-17T05:32:09.996Z,8.00
2023-04-17T05:35:11.302Z,9.23
2023-04-17T05:37:58.433Z,7.97
2023-04-17T05:40:44.280Z,7.70
2023-04-17T05:43:30.225Z,7.95
2023-04-17T05:46:16.030Z,11.18
2023-04-17T05:49:02.594Z,13.38
2023-04-17T05:51:48.262Z,11.02
2023-04-17T05:54:34.740Z,11.07
2023-04-17T05:57:20.783Z,15.02
2023-04-17T06:00:12.316Z,15.23
2023-04-17T06:03:01.075Z,12.30
2023-04-17T06:05:53.249Z,13.48
2023-04-17T06:08:39.265Z,10.95
2023-04-17T06:11:24.872Z,10.65
2023-04-17T06:14:11.394Z,11.07
2023-04-17T06:16:57.582Z,11.57
2023-04-17T06:19:43.464Z,11.25
2023-04-17T06:22:29.061Z,10.15
2023-04-17T06:25:14.591Z,8.90
2023-04-17T06:28:01.318Z,8.68
2023-04-17T06:30:48.281Z,8.82
2023-04-17T06:33:33.911Z,10.07
2023-04-17T06:36:19.366Z,9.85
2023-04-17T06:39:07.520Z,15.25
2023-04-17T06:41:53.504Z,10.80
2023-04-17T06:44:45.884Z,8.00
2023-04-17T06:47:32.535Z,9.65
2023-04-17T06:50:18.609Z,9.82
2023-04-17T06:53:04.270Z,10.77
2023-04-17T06:55:49.866Z,10.75
2023-04-17T06:58:41.663Z,9.82
2023-04-17T07:01:29.761Z,7.40
2023-04-17T07:04:17.247Z,7.63
2023-04-17T07:07:03.056Z,8.60
2023-04-17T07:09:48.465Z,6.65
2023-04-17T07:12:34.204Z,7.53
2023-04-17T07:15:19.982Z,8.85
2023-04-17T07:18:05.997Z,8.57
2023-04-17T07:20:51.875Z,9.10
2023-04-17T07:23:37.677Z,8.05
2023-04-17T07:26:23.242Z,8.90
2023-04-17T07:29:09.546Z,9.45
2023-04-17T07:31:55.546Z,7.82
2023-04-17T07:34:41.605Z,8.30
2023-04-17T07:37:27.060Z,9.98
2023-04-17T07:40:12.850Z,8.05
2023-04-17T07:42:58.940Z,10.93
2023-04-17T07:45:44.278Z,11.20
2023-04-17T07:48:30.973Z,9.07
2023-04-17T07:51:16.760Z,7.45
2023-04-17T07:54:02.962Z,8.13
2023-04-17T07:56:48.899Z,8.40
2023-04-17T07:59:36.344Z,8.07
2023-04-17T08:02:23.063Z,10.65
2023-04-17T08:05:09.629Z,8.40
2023-04-17T08:07:55.575Z,9.07
2023-04-17T08:10:40.996Z,9.30
2023-04-17T08:13:26.640Z,10.35
2023-04-17T08:16:12.801Z,10.88
2023-04-17T08:18:58.287Z,12.52
2023-04-17T08:21:43.762Z,11.65
2023-04-17T08:24:31.149Z,11.15
2023-04-17T08:27:17.005Z,9.70
2023-04-17T08:30:09.161Z,10.65
2023-04-17T08:32:56.841Z,10.45
2023-04-17T08:35:42.573Z,11.57
2023-04-17T08:38:30.552Z,8.93
2023-04-17T08:41:22.496Z,9.57
2023-04-17T08:44:08.425Z,9.20
2023-04-17T08:47:00.288Z,10.00
2023-04-17T08:49:46.694Z,9.80
2023-04-17T08:52:32.474Z,7.68
2023-04-17T08:55:22.006Z,7.22
2023-04-17T08:58:08.789Z,8.82
2023-04-17T09:00:54.235Z,8.05
2023-04-17T09:03:47.240Z,8.40
2023-04-17T09:06:53.564Z,7.82
2023-04-17T09:09:54.695Z,9.07
2023-04-17T09:12:41.483Z,8.90
2023-04-17T09:15:27.094Z,9.55
2023-04-17T09:18:30.534Z,9.15
2023-04-17T09:21:18.192Z,7.88
2023-04-17T09:24:05.756Z,8.43
2023-04-17T09:26:51.358Z,8.52
2023-04-17T09:29:58.134Z,9.40
2023-04-17T09:32:43.708Z,9.65
2023-04-17T09:35:30.733Z,9.27
2023-04-17T09:38:16.252Z,9.77
2023-04-17T09:41:01.705Z,10.18
2023-04-17T09:43:49.032Z,11.32
2023-04-17T09:46:38.639Z,11.20
2023-04-17T09:49:37.091Z,12.10
2023-04-17T09:52:24.086Z,11.07
2023-04-17T09:55:15.626Z,10.80
2023-04-17T09:58:04.229Z,11.13
2023-04-17T10:00:49.823Z,11.30
2023-04-17T10:03:37.614Z,11.32
2023-04-17T10:06:26.159Z,10.40
2023-04-17T10:09:11.586Z,12.35
2023-04-17T10:11:57.949Z,11.27
2023-04-17T10:14:47.789Z,13.30
2023-04-17T10:17:36.658Z,10.15
2023-04-17T10:20:25.192Z,9.05
2023-04-17T10:23:45.921Z,9.10
2023-04-17T10:26:34.782Z,10.63
2023-04-17T10:30:13.029Z,7.68
2023-04-17T10:33:24.214Z,6.40
2023-04-17T10:36:39.289Z,7.05
2023-04-17T10:39:25.330Z,7.57
2023-04-17T10:42:19.609Z,7.38
2023-04-17T10:45:18.728Z,6.60
2023-04-17T10:48:04.756Z,7.88
2023-04-17T10:50:50.470Z,8.18
2023-04-17T10:53:43.007Z,7.10
2023-04-17T10:56:37.933Z,7.93
2023-04-17T10:59:29.366Z,6.65
2023-04-17T11:02:16.247Z,7.22
2023-04-17T11:05:08.640Z,5.90
2023-04-17T11:07:54.642Z,6.50
2023-04-17T11:10:40.195Z,6.88
2023-04-17T11:13:25.877Z,6.10
2023-04-17T11:16:11.545Z,5.53
2023-04-17T11:18:57.033Z,6.07
2023-04-17T11:21:52.890Z,4.40
2023-04-17T11:24:38.525Z,4.60
2023-04-17T11:27:24.168Z,4.05
2023-04-17T11:30:10.427Z,4.05
2023-04-17T11:33:05.437Z,4.15
2023-04-17T11:35:51.904Z,4.15
2023-04-17T11:38:47.822Z,4.13
2023-04-17T11:41:41.998Z,5.22
2023-04-17T11:44:28.914Z,5.30
2023-04-17T11:47:14.447Z,4.57
2023-04-17T11:50:00.194Z,5.90
2023-04-17T11:52:47.730Z,5.07
2023-04-17T11:55:35.005Z,6.45
2023-04-17T11:58:20.769Z,6.18
2023-04-17T12:01:06.367Z,6.18
2023-04-17T12:03:59.403Z,6.78
2023-04-17T12:06:45.168Z,6.88
2023-04-17T12:09:32.479Z,6.57
2023-04-17T12:12:18.266Z,6.70
2023-04-17T12:15:04.450Z,6.40
2023-04-17T12:17:50.291Z,6.40
2023-04-17T12:20:36.461Z,6.20
2023-04-17T12:23:21.950Z,5.95
2023-04-17T12:26:08.477Z,6.63
2023-04-17T12:28:57.076Z,7.15
2023-04-17T12:31:44.196Z,7.75
2023-04-17T12:34:29.711Z,7.45
2023-04-17T12:37:15.794Z,7.72
2023-04-17T12:40:01.719Z,6.85
2023-04-17T12:42:49.756Z,6.85
2023-04-17T12:45:36.626Z,6.50
2023-04-17T12:48:22.305Z,6.32
2023-04-17T12:51:07.705Z,5.90
2023-04-17T12:53:56.792Z,9.73
2023-04-17T12:56:42.631Z,6.65
2023-04-17T12:59:28.004Z,6.80
2023-04-17T13:02:13.499Z,6.07
2023-04-17T13:04:58.962Z,6.80
2023-04-17T13:07:45.665Z,6.80
2023-04-17T13:10:31.069Z,6.10
2023-04-17T13:13:16.557Z,3.25
2023-04-17T13:16:02.089Z,3.47
2023-04-17T13:18:47.569Z,3.97
2023-04-17T13:21:33.086Z,4.13
2023-04-17T13:24:18.625Z,3.42
2023-04-17T13:27:04.330Z,2.40
2023-04-17T13:29:49.912Z,3.20
2023-04-17T13:32:35.533Z,2.30
2023-04-17T13:35:21.387Z,2.50
2023-04-17T13:38:06.948Z,3.10
2023-04-17T13:40:52.392Z,3.15
2023-04-17T13:43:38.557Z,3.03
2023-04-17T13:46:24.224Z,3.00
2023-04-17T13:49:10.557Z,2.97
2023-04-17T13:51:56.392Z,2.85
2023-04-17T13:54:42.019Z,2.47
2023-04-17T13:57:27.971Z,3.15
2023-04-17T14:00:14.383Z,2.53
2023-04-17T14:03:00.219Z,2.33
2023-04-17T14:05:46.275Z,2.40
2023-04-17T14:08:31.991Z,2.55
2023-04-17T14:11:18.583Z,2.25
2023-04-17T14:14:04.940Z,2.28
2023-04-17T14:16:50.428Z,2.80
2023-04-17T14:19:36.395Z,1.45
2023-04-17T14:22:21.944Z,2.67
2023-04-17T14:25:07.837Z,2.05
2023-04-17T14:27:54.032Z,2.67
2023-04-17T14:30:39.826Z,2.63
2023-04-17T14:33:25.812Z,2.58
2023-04-17T14:36:11.817Z,2.65
2023-04-17T14:38:58.086Z,2.90
2023-04-17T14:41:43.879Z,3.40
2023-04-17T14:44:30.056Z,4.00
2023-04-17T14:47:15.891Z,4.88
2023-04-17T14:50:02.859Z,3.63
2023-04-17T14:52:48.624Z,3.45
2023-04-17T14:55:36.300Z,2.65
2023-04-17T14:58:21.960Z,3.25
2023-04-17T15:01:07.458Z,3.33
2023-04-17T15:03:53.440Z,3.33
2023-04-17T15:06:39.220Z,3.55
2023-04-17T15:09:24.882Z,2.95
2023-04-17T15:12:10.704Z,4.50
2023-04-17T15:14:56.468Z,3.55
2023-04-17T15:17:42.088Z,3.25
2023-04-17T15:20:28.001Z,3.40
2023-04-17T15:23:14.804Z,3.95
2023-04-17T15:26:00.798Z,3.55
2023-04-17T15:28:46.694Z,4.28
2023-04-17T15:31:32.222Z,5.00
2023-04-17T15:34:18.369Z,5.07
2023-04-17T15:37:06.694Z,7.15
2023-04-17T15:39:52.543Z,6.60
2023-04-17T15:42:37.884Z,6.00
2023-04-17T15:45:25.128Z,4.65
2023-04-17T15:48:10.960Z,3.97
2023-04-17T15:50:56.734Z,4.70
2023-04-17T15:53:42.083Z,4.28
2023-04-17T15:56:27.781Z,3.75
2023-04-17T15:59:13.778Z,3.85
2023-04-17T16:01:59.968Z,4.65
2023-04-17T16:04:45.955Z,4.15
2023-04-17T16:07:31.933Z,4.35
2023-04-17T16:10:18.306Z,4.60
2023-04-17T16:13:03.806Z,5.57
2023-04-17T16:15:49.843Z,5.10
2023-04-17T16:18:35.940Z,5.38
2023-04-17T16:21:21.474Z,5.75
2023-04-17T16:24:07.063Z,4.72
2023-04-17T16:26:58.362Z,5.32
2023-04-17T16:29:45.087Z,6.40
2023-04-17T16:32:31.278Z,6.15
2023-04-17T16:35:17.083Z,4.82
2023-04-17T16:38:02.822Z,4.38
2023-04-17T16:40:48.701Z,5.78
2023-04-17T16:43:34.732Z,5.68
2023-04-17T16:46:31.750Z,5.13
2023-04-17T16:49:30.389Z,6.55
2023-04-17T16:52:16.294Z,5.78
2023-04-17T16:55:02.567Z,6.43
2023-04-17T16:57:48.318Z,6.28
2023-04-17T17:00:33.941Z,6.88
2023-04-17T17:03:19.557Z,5.43
2023-04-17T17:06:06.442Z,6.80
2023-04-17T17:08:54.632Z,5.40
2023-04-17T17:11:40.869Z,6.88
2023-04-17T17:14:26.413Z,5.07
2023-04-17T17:17:11.891Z,5.95
2023-04-17T17:19:57.307Z,6.07
2023-04-17T17:22:43.076Z,6.00
2023-04-17T17:25:28.985Z,6.50
2023-04-17T17:28:14.554Z,5.38
2023-04-17T17:31:07.164Z,5.45
2023-04-17T17:33:54.498Z,5.65
2023-04-17T17:36:40.224Z,5.88
2023-04-17T17:39:25.950Z,5.72
2023-04-17T17:42:11.618Z,5.35
2023-04-17T17:44:57.668Z,5.97
2023-04-17T17:47:43.224Z,5.75
2023-04-17T17:50:28.981Z,7.05
2023-04-17T17:53:16.188Z,6.88
2023-04-17T17:56:02.233Z,6.13
2023-04-17T17:58:48.234Z,5.13
2023-04-17T18:01:34.286Z,5.72
2023-04-17T18:04:20.825Z,11.50
2023-04-17T18:07:07.470Z,19.58
2023-04-17T18:09:53.046Z,15.95
2023-04-17T18:12:38.694Z,7.93
2023-04-17T18:15:24.409Z,8.40
2023-04-17T18:18:10.076Z,9.57
2023-04-17T18:20:56.159Z,18.38
2023-04-17T18:23:41.813Z,18.45
2023-04-17T18:26:27.775Z,17.13
2023-04-17T18:29:13.750Z,16.10
2023-04-17T18:31:59.179Z,7.10
2023-04-17T18:34:48.400Z,6.30
2023-04-17T18:37:33.974Z,6.03
2023-04-17T18:40:19.537Z,5.00
2023-04-17T18:43:06.007Z,6.00
2023-04-17T18:45:53.460Z,6.03
2023-04-17T18:48:39.282Z,10.00
2023-04-17T18:51:25.469Z,9.35
2023-04-17T18:54:17.867Z,7.68
2023-04-17T18:57:20.070Z,6.28
2023-04-17T19:00:08.072Z,6.80
2023-04-17T19:02:54.406Z,7.47
2023-04-17T19:05:40.528Z,7.53
2023-04-17T19:08:26.311Z,6.47
2023-04-17T19:11:12.042Z,6.35
2023-04-17T19:13:58.032Z,6.50
2023-04-17T19:16:45.804Z,6.97
2023-04-17T19:19:33.062Z,6.90
2023-04-17T19:22:18.610Z,6.70
2023-04-17T19:25:04.307Z,6.10
2023-04-17T19:27:50.094Z,6.38
2023-04-17T19:30:36.443Z,5.88
2023-04-17T19:33:22.444Z,6.78
2023-04-17T19:36:08.376Z,7.25
2023-04-17T19:38:55.906Z,6.57
2023-04-17T19:41:42.862Z,6.32
2023-04-17T19:44:28.556Z,6.13
2023-04-17T19:47:14.489Z,6.20
2023-04-17T19:50:00.259Z,6.55
2023-04-17T19:52:45.825Z,6.50
2023-04-17T19:55:31.166Z,5.60
2023-04-17T19:58:16.831Z,5.03
2023-04-17T20:01:03.062Z,6.40
2023-04-17T20:03:48.977Z,5.63
2023-04-17T20:06:35.466Z,6.22
2023-04-17T20:09:21.101Z,5.10
2023-04-17T20:12:08.599Z,6.20
2023-04-17T20:14:54.299Z,6.07
2023-04-17T20:17:40.252Z,7.40
2023-04-17T20:20:26.044Z,10.40
2023-04-17T20:23:11.694Z,9.38
2023-04-17T20:25:57.618Z,8.30
2023-04-17T20:28:43.244Z,8.63
2023-04-17T20:31:30.220Z,7.63
2023-04-17T20:34:16.170Z,10.70
2023-04-17T20:37:02.021Z,7.78
2023-04-17T20:39:47.984Z,8.50
2023-04-17T20:42:34.187Z,7.70
2023-04-17T20:45:21.105Z,9.93
2023-04-17T20:48:07.119Z,8.77
2023-04-17T20:50:53.100Z,8.50
2023-04-17T20:53:38.940Z,7.75
2023-04-17T20:56:24.568Z,8.88
2023-04-17T20:59:10.806Z,8.93
2023-04-17T21:01:56.811Z,7.15
2023-04-17T21:04:43.354Z,7.97
2023-04-17T21:07:32.122Z,9.02
2023-04-17T21:10:19.268Z,6.72
2023-04-17T21:13:05.014Z,7.68
2023-04-17T21:15:50.699Z,8.57
2023-04-17T21:18:36.494Z,6.90
2023-04-17T21:21:22.202Z,6.53
2023-04-17T21:24:09.149Z,7.13
2023-04-17T21:26:57.988Z,6.38
2023-04-17T21:29:43.796Z,7.82
2023-04-17T21:32:29.692Z,6.70
2023-04-17T21:35:15.649Z,6.78
2023-04-17T21:38:01.269Z,7.38
2023-04-17T21:40:51.255Z,7.60
2023-04-17T21:43:37.448Z,7.82
2023-04-17T21:46:22.989Z,8.02
2023-04-17T21:49:08.431Z,6.55
2023-04-17T21:51:54.274Z,5.18
2023-04-17T21:54:40.180Z,4.80
2023-04-17T21:57:25.815Z,4.45
2023-04-17T22:00:13.914Z,5.25
2023-04-17T22:03:00.274Z,6.65
2023-04-17T22:05:45.897Z,6.07
2023-04-17T22:08:31.554Z,4.80
2023-04-17T22:11:17.282Z,4.30
2023-04-17T22:14:02.871Z,4.70
2023-04-17T22:16:48.915Z,4.07
2023-04-17T22:19:34.340Z,3.78
2023-04-17T22:22:19.825Z,3.03
2023-04-17T22:25:05.928Z,3.00
2023-04-17T22:27:51.722Z,2.67
2023-04-17T22:30:37.514Z,3.15
2023-04-17T22:33:22.935Z,2.65
2023-04-17T22:36:08.655Z,2.53
2023-04-17T22:38:54.176Z,2.47
2023-04-17T22:41:39.765Z,3.42
2023-04-17T22:44:25.636Z,3.03
2023-04-17T22:47:11.379Z,3.88
2023-04-17T22:49:57.036Z,3.60
2023-04-17T22:52:42.492Z,3.20
2023-04-17T22:55:28.167Z,3.45
2023-04-17T22:58:13.781Z,4.25
2023-04-17T23:01:00.037Z,3.40
2023-04-17T23:03:45.790Z,3.13
2023-04-17T23:06:31.370Z,3.92
2023-04-17T23:09:16.746Z,3.92
2023-04-17T23:12:02.710Z,4.30
2023-04-17T23:14:48.891Z,4.45
2023-04-17T23:17:35.053Z,5.50
2023-04-17T23:20:21.209Z,5.40
2023-04-17T23:23:06.689Z,4.88
2023-04-17T23:25:52.113Z,4.82
2023-04-17T23:28:37.849Z,4.90
2023-04-17T23:31:23.455Z,4.45
2023-04-17T23:34:09.464Z,5.75
2023-04-17T23:36:55.604Z,4.97
2023-04-17T23:39:42.081Z,4.30
2023-04-17T23:42:27.809Z,3.92
2023-04-17T23:45:13.632Z,3.88
2023-04-17T23:47:59.441Z,4.18
2023-04-17T23:50:45.234Z,2.97
2023-04-17T23:53:31.081Z,3.97
2023-04-17T23:56:17.485Z,3.00
2023-04-17T23:59:02.970Z,3.80
